Pagina principale
METAR-TAF:

METAR-TAF

Aeroporti :

Aeroporto di Bastia Poretta

Bastia, Francia

latitudine: 42-33N, longitudine: 009-29E, altezza: 8 m

Osservazione

Il bollettino è stato emesso 26 minuti fa, alle 12:30 UTC
Vento 12 kt da nord/nord-ovest
Temperature 17°C
Umidità 42%
Pressione 999 hPa
Visibilità 10 km o più
Poco nuvoloso ad un'altezza di 5800 ft

METAR: LFKB 131230Z AUTO 33012KT 9999 FEW058 17/04 Q0999 NOSIG

Ora: 13:56 (12:56 UTC)

Previsione

Il bollettino è stato emesso 4 ore e 56 minuti fa, alle 08:00 UTC
Previsione valida dal 13 alle 09 UTC al 14 alle 09 UTC
Vento 10 kt da nord-ovest
Visibilità 10 km o più
nessuna nube inferiore a 1500 m e nessun cumulonembo
Evoluzione graduale
dal 13 alle 19 UTC al 13 alle 21 UTC
Vento 6 kt da sud-ovest

TAF: LFKB 130800Z 1309/1409 32010KT CAVOK TX17/1312Z TN09/1405Z BECMG 1319/1321 23006KT

Osservazioni e previsioni meteorologiche di più di 4000 aeroporti (messaggi METAR e TAF).

Le stazioni disponibili sono rappresentate dai dischi gialli e rossi sulla carta.

Puntare il mouse per vedere il nome della stazione.

Clicca sopra per visualizzare le osservazioni e previsioni meteorologiche.

Per cambiare la mappa : fare clic sui pulsanti verdi con una croce nera per ingrandire, il pulsante verde con un trattino per diminuire, o sulla freccia verde per le mappe adiacenti.


METAR-TAF: